sensor_id;sensor_type;location;lat;lon;timestamp;pressure;altitude;pressure_sealevel;temperature;humidity
60465;BME280;46314;52.392;9.758;2023-02-19T00:01:19;100698.59;;;11.09;92.56
60465;BME280;46314;52.392;9.758;2023-02-19T00:03:48;100701.66;;;10.37;95.37
60465;BME280;46314;52.392;9.758;2023-02-19T00:06:15;100706.38;;;10.74;94.24
60465;BME280;46314;52.392;9.758;2023-02-19T00:08:41;100699.19;;;10.73;95.10
60465;BME280;46314;52.392;9.758;2023-02-19T00:11:11;100692.25;;;11.23;92.60
60465;BME280;46314;52.392;9.758;2023-02-19T00:13:39;100692.03;;;10.86;93.39
60465;BME280;46314;52.392;9.758;2023-02-19T00:16:06;100684.69;;;11.09;91.82
60465;BME280;46314;52.392;9.758;2023-02-19T00:18:33;100685.88;;;11.22;91.91
60465;BME280;46314;52.392;9.758;2023-02-19T00:21:00;100673.22;;;11.16;92.30
60465;BME280;46314;52.392;9.758;2023-02-19T00:23:27;100663.78;;;11.59;90.16
60465;BME280;46314;52.392;9.758;2023-02-19T00:25:53;100665.13;;;11.47;90.84
60465;BME280;46314;52.392;9.758;2023-02-19T00:28:21;100659.28;;;11.49;89.78
60465;BME280;46314;52.392;9.758;2023-02-19T00:30:48;100661.25;;;11.02;93.11
60465;BME280;46314;52.392;9.758;2023-02-19T00:33:14;100657.84;;;10.91;93.12
60465;BME280;46314;52.392;9.758;2023-02-19T00:35:41;100656.91;;;11.42;90.61
60465;BME280;46314;52.392;9.758;2023-02-19T00:38:07;100648.97;;;11.49;90.56
60465;BME280;46314;52.392;9.758;2023-02-19T00:40:34;100650.38;;;11.05;91.80
60465;BME280;46314;52.392;9.758;2023-02-19T00:43:00;100645.94;;;11.04;92.42
60465;BME280;46314;52.392;9.758;2023-02-19T00:45:28;100642.91;;;10.87;93.86
60465;BME280;46314;52.392;9.758;2023-02-19T00:47:54;100636.75;;;11.36;92.04
60465;BME280;46314;52.392;9.758;2023-02-19T00:50:21;100629.44;;;10.80;96.98
60465;BME280;46314;52.392;9.758;2023-02-19T00:52:47;100619.06;;;10.53;100.00
60465;BME280;46314;52.392;9.758;2023-02-19T00:55:14;100611.50;;;10.39;100.00
60465;BME280;46314;52.392;9.758;2023-02-19T00:57:40;100617.59;;;10.74;100.00
60465;BME280;46314;52.392;9.758;2023-02-19T01:00:08;100611.50;;;10.20;100.00
60465;BME280;46314;52.392;9.758;2023-02-19T01:02:36;100612.66;;;10.71;100.00
60465;BME280;46314;52.392;9.758;2023-02-19T01:05:02;100617.50;;;10.79;100.00
60465;BME280;46314;52.392;9.758;2023-02-19T01:07:29;100615.13;;;10.73;100.00
60465;BME280;46314;52.392;9.758;2023-02-19T01:09:55;100622.25;;;11.26;99.15
60465;BME280;46314;52.392;9.758;2023-02-19T01:12:21;100619.38;;;10.51;100.00
60465;BME280;46314;52.392;9.758;2023-02-19T01:14:48;100622.13;;;10.51;100.00
60465;BME280;46314;52.392;9.758;2023-02-19T01:17:14;100617.63;;;10.88;100.00
60465;BME280;46314;52.392;9.758;2023-02-19T01:19:42;100629.25;;;10.57;100.00
60465;BME280;46314;52.392;9.758;2023-02-19T01:22:08;100618.25;;;10.99;100.00
60465;BME280;46314;52.392;9.758;2023-02-19T01:24:35;100647.50;;;10.77;100.00
60465;BME280;46314;52.392;9.758;2023-02-19T01:27:01;100640.94;;;10.54;100.00
60465;BME280;46314;52.392;9.758;2023-02-19T01:29:27;100635.00;;;10.80;100.00
60465;BME280;46314;52.392;9.758;2023-02-19T01:31:54;100634.28;;;10.88;100.00
60465;BME280;46314;52.392;9.758;2023-02-19T01:34:20;100635.31;;;10.59;100.00
60465;BME280;46314;52.392;9.758;2023-02-19T01:36:48;100628.38;;;10.76;100.00
60465;BME280;46314;52.392;9.758;2023-02-19T01:39:14;100626.66;;;10.47;100.00
60465;BME280;46314;52.392;9.758;2023-02-19T01:41:41;100624.97;;;10.27;100.00
60465;BME280;46314;52.392;9.758;2023-02-19T01:47:13;100607.50;;;9.70;100.00
60465;BME280;46314;52.392;9.758;2023-02-19T01:49:43;100609.91;;;10.14;100.00
60465;BME280;46314;52.392;9.758;2023-02-19T01:52:15;100608.97;;;10.24;100.00
60465;BME280;46314;52.392;9.758;2023-02-19T01:54:44;100605.38;;;10.04;100.00
60465;BME280;46314;52.392;9.758;2023-02-19T01:57:15;100597.41;;;9.98;100.00
60465;BME280;46314;52.392;9.758;2023-02-19T01:59:44;100593.50;;;9.99;100.00
60465;BME280;46314;52.392;9.758;2023-02-19T02:02:12;100596.28;;;9.80;100.00
60465;BME280;46314;52.392;9.758;2023-02-19T02:04:39;100593.88;;;9.73;100.00
60465;BME280;46314;52.392;9.758;2023-02-19T02:07:05;100592.91;;;9.64;100.00
60465;BME280;46314;52.392;9.758;2023-02-19T02:09:33;100590.38;;;10.05;100.00
60465;BME280;46314;52.392;9.758;2023-02-19T02:11:59;100584.81;;;9.86;100.00
60465;BME280;46314;52.392;9.758;2023-02-19T02:14:29;100586.72;;;10.10;100.00
60465;BME280;46314;52.392;9.758;2023-02-19T02:17:03;100583.78;;;10.01;100.00
60465;BME280;46314;52.392;9.758;2023-02-19T02:19:49;100586.78;;;10.05;100.00
60465;BME280;46314;52.392;9.758;2023-02-19T02:22:24;100582.50;;;10.13;99.13
60465;BME280;46314;52.392;9.758;2023-02-19T02:25:16;100585.19;;;9.99;100.00
60465;BME280;46314;52.392;9.758;2023-02-19T02:27:55;100582.13;;;10.00;100.00
60465;BME280;46314;52.392;9.758;2023-02-19T02:30:32;100580.69;;;9.65;100.00
60465;BME280;46314;52.392;9.758;2023-02-19T02:33:10;100568.00;;;9.40;100.00
60465;BME280;46314;52.392;9.758;2023-02-19T02:35:43;100583.84;;;9.96;100.00
60465;BME280;46314;52.392;9.758;2023-02-19T02:38:11;100583.38;;;9.70;100.00
60465;BME280;46314;52.392;9.758;2023-02-19T02:40:42;100582.59;;;9.89;100.00
60465;BME280;46314;52.392;9.758;2023-02-19T02:43:09;100582.75;;;9.97;100.00
60465;BME280;46314;52.392;9.758;2023-02-19T02:45:37;100575.78;;;10.00;100.00
60465;BME280;46314;52.392;9.758;2023-02-19T02:48:09;100579.75;;;9.94;100.00
60465;BME280;46314;52.392;9.758;2023-02-19T02:50:41;100575.31;;;9.93;100.00
60465;BME280;46314;52.392;9.758;2023-02-19T02:53:14;100567.75;;;9.60;100.00
60465;BME280;46314;52.392;9.758;2023-02-19T02:55:43;100564.31;;;10.07;100.00
60465;BME280;46314;52.392;9.758;2023-02-19T02:58:11;100563.63;;;10.15;100.00
60465;BME280;46314;52.392;9.758;2023-02-19T03:00:42;100559.00;;;9.91;100.00
60465;BME280;46314;52.392;9.758;2023-02-19T03:03:11;100559.78;;;10.30;100.00
60465;BME280;46314;52.392;9.758;2023-02-19T03:05:38;100558.13;;;9.53;100.00
60465;BME280;46314;52.392;9.758;2023-02-19T03:08:08;100567.25;;;9.53;100.00
60465;BME280;46314;52.392;9.758;2023-02-19T03:10:39;100564.59;;;9.67;100.00
60465;BME280;46314;52.392;9.758;2023-02-19T03:13:10;100575.63;;;9.91;100.00
60465;BME280;46314;52.392;9.758;2023-02-19T03:15:42;100607.56;;;9.64;100.00
60465;BME280;46314;52.392;9.758;2023-02-19T03:18:10;100622.84;;;9.81;100.00
60465;BME280;46314;52.392;9.758;2023-02-19T03:20:43;100629.38;;;10.09;100.00
60465;BME280;46314;52.392;9.758;2023-02-19T03:23:13;100631.50;;;9.55;97.96
60465;BME280;46314;52.392;9.758;2023-02-19T03:25:41;100631.63;;;9.45;97.11
60465;BME280;46314;52.392;9.758;2023-02-19T03:28:09;100636.47;;;9.77;95.57
60465;BME280;46314;52.392;9.758;2023-02-19T03:30:40;100646.72;;;10.01;93.54
60465;BME280;46314;52.392;9.758;2023-02-19T03:33:13;100644.25;;;9.51;92.33
60465;BME280;46314;52.392;9.758;2023-02-19T03:35:43;100639.06;;;9.69;94.63
60465;BME280;46314;52.392;9.758;2023-02-19T03:38:15;100637.38;;;9.48;95.04
60465;BME280;46314;52.392;9.758;2023-02-19T03:40:49;100644.66;;;9.63;93.07
60465;BME280;46314;52.392;9.758;2023-02-19T03:43:20;100640.00;;;9.83;92.06
60465;BME280;46314;52.392;9.758;2023-02-19T03:45:55;100659.44;;;8.71;97.48
60465;BME280;46314;52.392;9.758;2023-02-19T03:48:29;100656.91;;;9.81;94.13
60465;BME280;46314;52.392;9.758;2023-02-19T03:51:05;100657.34;;;9.94;91.78
60465;BME280;46314;52.392;9.758;2023-02-19T03:53:41;100661.28;;;9.63;92.46
60465;BME280;46314;52.392;9.758;2023-02-19T03:56:15;100661.16;;;9.50;95.90
60465;BME280;46314;52.392;9.758;2023-02-19T03:58:51;100664.78;;;9.50;95.00
60465;BME280;46314;52.392;9.758;2023-02-19T04:01:23;100672.91;;;9.41;93.27
60465;BME280;46314;52.392;9.758;2023-02-19T04:03:55;100668.16;;;8.88;96.29
60465;BME280;46314;52.392;9.758;2023-02-19T04:06:26;100679.75;;;8.56;94.43
60465;BME280;46314;52.392;9.758;2023-02-19T04:08:55;100681.22;;;9.41;93.75
60465;BME280;46314;52.392;9.758;2023-02-19T04:11:24;100683.50;;;9.58;93.05
60465;BME280;46314;52.392;9.758;2023-02-19T04:13:55;100704.72;;;9.68;91.29
60465;BME280;46314;52.392;9.758;2023-02-19T04:16:26;100697.19;;;9.74;90.71
60465;BME280;46314;52.392;9.758;2023-02-19T04:18:58;100699.00;;;9.59;91.63
60465;BME280;46314;52.392;9.758;2023-02-19T04:21:29;100706.47;;;8.71;92.93
60465;BME280;46314;52.392;9.758;2023-02-19T04:23:58;100723.50;;;9.47;92.78
60465;BME280;46314;52.392;9.758;2023-02-19T04:26:27;100724.75;;;9.60;91.40
60465;BME280;46314;52.392;9.758;2023-02-19T04:28:54;100732.19;;;9.64;89.84
60465;BME280;46314;52.392;9.758;2023-02-19T04:31:21;100741.97;;;8.53;96.34
60465;BME280;46314;52.392;9.758;2023-02-19T04:33:48;100751.44;;;9.16;92.43
60465;BME280;46314;52.392;9.758;2023-02-19T04:36:16;100760.50;;;8.93;94.06
60465;BME280;46314;52.392;9.758;2023-02-19T04:38:42;100755.84;;;9.22;91.24
60465;BME280;46314;52.392;9.758;2023-02-19T04:41:08;100763.59;;;8.36;95.14
60465;BME280;46314;52.392;9.758;2023-02-19T04:43:35;100761.41;;;9.17;91.96
60465;BME280;46314;52.392;9.758;2023-02-19T04:46:02;100768.75;;;9.03;91.37
60465;BME280;46314;52.392;9.758;2023-02-19T04:48:28;100768.38;;;9.15;90.99
60465;BME280;46314;52.392;9.758;2023-02-19T04:50:55;100778.09;;;9.41;89.09
60465;BME280;46314;52.392;9.758;2023-02-19T04:53:23;100778.69;;;9.38;89.29
60465;BME280;46314;52.392;9.758;2023-02-19T04:55:49;100788.09;;;9.37;89.02
60465;BME280;46314;52.392;9.758;2023-02-19T04:58:16;100802.78;;;9.38;88.69
60465;BME280;46314;52.392;9.758;2023-02-19T05:00:42;100812.66;;;9.44;88.69
60465;BME280;46314;52.392;9.758;2023-02-19T05:03:09;100839.53;;;9.43;88.58
60465;BME280;46314;52.392;9.758;2023-02-19T05:05:35;100835.72;;;9.39;88.28
60465;BME280;46314;52.392;9.758;2023-02-19T05:08:01;100839.16;;;9.21;88.97
60465;BME280;46314;52.392;9.758;2023-02-19T05:10:29;100841.25;;;9.39;88.38
60465;BME280;46314;52.392;9.758;2023-02-19T05:12:55;100847.09;;;9.33;88.59
60465;BME280;46314;52.392;9.758;2023-02-19T05:15:23;100844.41;;;9.22;89.11
60465;BME280;46314;52.392;9.758;2023-02-19T05:17:49;100845.81;;;8.75;90.65
60465;BME280;46314;52.392;9.758;2023-02-19T05:20:16;100851.59;;;8.79;90.10
60465;BME280;46314;52.392;9.758;2023-02-19T05:22:42;100849.19;;;8.62;91.69
60465;BME280;46314;52.392;9.758;2023-02-19T05:25:09;100852.38;;;8.84;89.26
60465;BME280;46314;52.392;9.758;2023-02-19T05:27:36;100861.91;;;8.58;90.88
60465;BME280;46314;52.392;9.758;2023-02-19T05:30:03;100847.03;;;8.48;90.53
60465;BME280;46314;52.392;9.758;2023-02-19T05:32:30;100859.91;;;8.74;88.93
60465;BME280;46314;52.392;9.758;2023-02-19T05:34:56;100865.91;;;8.91;87.82
60465;BME280;46314;52.392;9.758;2023-02-19T05:37:23;100867.63;;;8.82;87.42
60465;BME280;46314;52.392;9.758;2023-02-19T05:39:49;100865.56;;;8.48;88.73
60465;BME280;46314;52.392;9.758;2023-02-19T05:42:16;100871.13;;;8.22;91.00
60465;BME280;46314;52.392;9.758;2023-02-19T05:44:44;100874.06;;;8.62;88.33
60465;BME280;46314;52.392;9.758;2023-02-19T05:47:10;100888.09;;;8.81;87.02
60465;BME280;46314;52.392;9.758;2023-02-19T05:49:36;100883.44;;;8.71;87.29
60465;BME280;46314;52.392;9.758;2023-02-19T05:52:03;100897.22;;;8.81;86.59
60465;BME280;46314;52.392;9.758;2023-02-19T05:54:30;100906.81;;;7.83;91.28
60465;BME280;46314;52.392;9.758;2023-02-19T05:56:57;100911.25;;;8.04;90.03
60465;BME280;46314;52.392;9.758;2023-02-19T05:59:25;100922.22;;;8.40;87.89
60465;BME280;46314;52.392;9.758;2023-02-19T06:01:53;100926.47;;;7.86;88.53
60465;BME280;46314;52.392;9.758;2023-02-19T06:04:20;100936.06;;;8.30;87.10
60465;BME280;46314;52.392;9.758;2023-02-19T06:06:47;100948.75;;;8.41;85.75
60465;BME280;46314;52.392;9.758;2023-02-19T06:09:13;100947.97;;;8.25;85.21
60465;BME280;46314;52.392;9.758;2023-02-19T06:11:40;100958.91;;;7.17;89.95
60465;BME280;46314;52.392;9.758;2023-02-19T06:14:06;100972.28;;;7.77;86.17
60465;BME280;46314;52.392;9.758;2023-02-19T06:16:33;100981.94;;;8.00;84.59
60465;BME280;46314;52.392;9.758;2023-02-19T06:19:02;100997.16;;;8.03;85.32
60465;BME280;46314;52.392;9.758;2023-02-19T06:21:29;101004.81;;;7.54;86.35
60465;BME280;46314;52.392;9.758;2023-02-19T06:23:55;101006.19;;;7.47;86.14
60465;BME280;46314;52.392;9.758;2023-02-19T06:26:23;101007.06;;;7.78;84.90
60465;BME280;46314;52.392;9.758;2023-02-19T06:28:51;101014.25;;;7.94;85.43
60465;BME280;46314;52.392;9.758;2023-02-19T06:31:19;101015.84;;;7.39;88.55
60465;BME280;46314;52.392;9.758;2023-02-19T06:33:46;101013.00;;;7.24;89.67
60465;BME280;46314;52.392;9.758;2023-02-19T06:36:16;101019.38;;;6.29;92.52
60465;BME280;46314;52.392;9.758;2023-02-19T06:38:43;101017.19;;;7.36;89.59
60465;BME280;46314;52.392;9.758;2023-02-19T06:41:10;101026.13;;;7.74;86.51
60465;BME280;46314;52.392;9.758;2023-02-19T06:43:38;101040.13;;;7.52;87.92
60465;BME280;46314;52.392;9.758;2023-02-19T06:46:06;101054.19;;;7.46;85.46
60465;BME280;46314;52.392;9.758;2023-02-19T06:48:33;101075.72;;;5.88;92.90
60465;BME280;46314;52.392;9.758;2023-02-19T06:51:00;101070.38;;;6.36;90.40
60465;BME280;46314;52.392;9.758;2023-02-19T06:53:28;101079.94;;;6.23;89.58
60465;BME280;46314;52.392;9.758;2023-02-19T06:55:56;101082.84;;;6.81;90.89
60465;BME280;46314;52.392;9.758;2023-02-19T06:58:22;101082.59;;;6.13;90.26
60465;BME280;46314;52.392;9.758;2023-02-19T07:00:49;101097.78;;;7.44;86.42
60465;BME280;46314;52.392;9.758;2023-02-19T07:03:15;101099.81;;;7.64;85.22
60465;BME280;46314;52.392;9.758;2023-02-19T07:05:42;101106.03;;;7.33;85.47
60465;BME280;46314;52.392;9.758;2023-02-19T07:08:08;101113.53;;;6.90;88.75
60465;BME280;46314;52.392;9.758;2023-02-19T07:10:36;101132.19;;;6.78;88.20
60465;BME280;46314;52.392;9.758;2023-02-19T07:13:02;101129.66;;;7.72;83.95
60465;BME280;46314;52.392;9.758;2023-02-19T07:15:29;101144.91;;;7.27;86.70
60465;BME280;46314;52.392;9.758;2023-02-19T07:17:55;101150.06;;;7.13;87.99
60465;BME280;46314;52.392;9.758;2023-02-19T07:20:22;101156.88;;;7.43;85.29
60465;BME280;46314;52.392;9.758;2023-02-19T07:22:49;101160.81;;;7.62;84.41
60465;BME280;46314;52.392;9.758;2023-02-19T07:25:15;101163.13;;;7.86;84.25
60465;BME280;46314;52.392;9.758;2023-02-19T07:27:43;101175.31;;;7.90;83.12
60465;BME280;46314;52.392;9.758;2023-02-19T07:30:10;101201.13;;;7.63;84.55
60465;BME280;46314;52.392;9.758;2023-02-19T07:32:39;101199.47;;;7.62;84.36
60465;BME280;46314;52.392;9.758;2023-02-19T07:35:06;101200.22;;;7.52;86.64
60465;BME280;46314;52.392;9.758;2023-02-19T07:37:33;101212.13;;;7.58;84.98
60465;BME280;46314;52.392;9.758;2023-02-19T07:39:59;101209.56;;;7.94;83.42
60465;BME280;46314;52.392;9.758;2023-02-19T07:42:26;101222.44;;;7.73;83.31
60465;BME280;46314;52.392;9.758;2023-02-19T07:44:53;101221.78;;;8.19;82.98
60465;BME280;46314;52.392;9.758;2023-02-19T07:47:20;101214.03;;;8.15;81.89
60465;BME280;46314;52.392;9.758;2023-02-19T07:49:46;101214.34;;;7.13;84.32
60465;BME280;46314;52.392;9.758;2023-02-19T07:52:12;101214.78;;;6.68;89.08
60465;BME280;46314;52.392;9.758;2023-02-19T07:54:39;101219.81;;;7.51;86.06
60465;BME280;46314;52.392;9.758;2023-02-19T07:57:05;101231.31;;;7.32;87.21
60465;BME280;46314;52.392;9.758;2023-02-19T07:59:33;101242.09;;;7.34;87.09
60465;BME280;46314;52.392;9.758;2023-02-19T08:02:01;101241.31;;;7.44;85.54
60465;BME280;46314;52.392;9.758;2023-02-19T08:04:27;101238.97;;;8.36;83.30
60465;BME280;46314;52.392;9.758;2023-02-19T08:06:54;101238.97;;;8.31;81.38
60465;BME280;46314;52.392;9.758;2023-02-19T08:09:20;101252.13;;;7.50;81.75
60465;BME280;46314;52.392;9.758;2023-02-19T08:11:46;101263.72;;;7.15;85.70
60465;BME280;46314;52.392;9.758;2023-02-19T08:14:13;101261.94;;;7.31;88.95
60465;BME280;46314;52.392;9.758;2023-02-19T08:16:47;101265.75;;;7.67;85.40
60465;BME280;46314;52.392;9.758;2023-02-19T08:19:15;101270.81;;;7.38;85.91
60465;BME280;46314;52.392;9.758;2023-02-19T08:21:41;101274.94;;;7.35;87.21
60465;BME280;46314;52.392;9.758;2023-02-19T08:24:08;101281.81;;;7.33;87.78
60465;BME280;46314;52.392;9.758;2023-02-19T08:26:35;101280.38;;;7.68;85.87
60465;BME280;46314;52.392;9.758;2023-02-19T08:29:02;101280.66;;;8.24;82.81
60465;BME280;46314;52.392;9.758;2023-02-19T08:31:28;101291.34;;;7.95;84.25
60465;BME280;46314;52.392;9.758;2023-02-19T08:33:55;101303.22;;;7.53;84.13
60465;BME280;46314;52.392;9.758;2023-02-19T08:36:22;101305.41;;;7.93;84.51
60465;BME280;46314;52.392;9.758;2023-02-19T08:38:49;101298.75;;;8.52;81.80
60465;BME280;46314;52.392;9.758;2023-02-19T08:41:15;101293.81;;;8.60;81.30
60465;BME280;46314;52.392;9.758;2023-02-19T08:43:42;101297.72;;;8.84;79.88
60465;BME280;46314;52.392;9.758;2023-02-19T08:46:10;101291.03;;;8.55;83.17
60465;BME280;46314;52.392;9.758;2023-02-19T08:48:38;101285.59;;;8.96;79.74
60465;BME280;46314;52.392;9.758;2023-02-19T08:51:06;101288.16;;;8.29;82.95
60465;BME280;46314;52.392;9.758;2023-02-19T08:53:35;101302.38;;;7.95;82.75
60465;BME280;46314;52.392;9.758;2023-02-19T08:56:03;101306.28;;;8.04;83.07
60465;BME280;46314;52.392;9.758;2023-02-19T08:58:30;101312.06;;;7.55;84.19
60465;BME280;46314;52.392;9.758;2023-02-19T09:00:56;101304.63;;;6.91;87.94
60465;BME280;46314;52.392;9.758;2023-02-19T09:03:23;101315.84;;;7.81;83.35
60465;BME280;46314;52.392;9.758;2023-02-19T09:05:49;101311.94;;;8.35;81.16
60465;BME280;46314;52.392;9.758;2023-02-19T09:08:15;101323.88;;;7.93;81.23
60465;BME280;46314;52.392;9.758;2023-02-19T09:10:43;101324.19;;;7.54;84.78
60465;BME280;46314;52.392;9.758;2023-02-19T09:13:10;101328.66;;;6.95;85.81
60465;BME280;46314;52.392;9.758;2023-02-19T09:15:36;101340.75;;;7.96;84.37
60465;BME280;46314;52.392;9.758;2023-02-19T09:18:04;101351.44;;;7.13;85.89
60465;BME280;46314;52.392;9.758;2023-02-19T09:20:30;101365.16;;;7.67;85.48
60465;BME280;46314;52.392;9.758;2023-02-19T09:22:57;101360.56;;;8.99;80.21
60465;BME280;46314;52.392;9.758;2023-02-19T09:25:23;101359.13;;;8.76;80.21
60465;BME280;46314;52.392;9.758;2023-02-19T09:27:54;101375.66;;;8.56;79.54
60465;BME280;46314;52.392;9.758;2023-02-19T09:30:21;101363.50;;;8.57;78.98
60465;BME280;46314;52.392;9.758;2023-02-19T09:32:47;101372.22;;;9.12;75.98
60465;BME280;46314;52.392;9.758;2023-02-19T09:35:14;101375.41;;;8.62;77.89
60465;BME280;46314;52.392;9.758;2023-02-19T09:37:40;101362.34;;;8.52;79.78
60465;BME280;46314;52.392;9.758;2023-02-19T09:40:08;101360.97;;;8.50;79.14
60465;BME280;46314;52.392;9.758;2023-02-19T09:42:35;101365.75;;;7.37;82.09
60465;BME280;46314;52.392;9.758;2023-02-19T09:45:07;101388.06;;;8.53;78.57
60465;BME280;46314;52.392;9.758;2023-02-19T09:47:33;101380.34;;;8.55;77.90
60465;BME280;46314;52.392;9.758;2023-02-19T09:50:04;101386.13;;;8.48;79.99
60465;BME280;46314;52.392;9.758;2023-02-19T09:52:35;101392.25;;;8.61;79.50
60465;BME280;46314;52.392;9.758;2023-02-19T09:55:12;101403.63;;;8.17;78.55
60465;BME280;46314;52.392;9.758;2023-02-19T09:57:40;101406.56;;;8.05;80.76
60465;BME280;46314;52.392;9.758;2023-02-19T10:00:20;101415.31;;;7.91;79.90
60465;BME280;46314;52.392;9.758;2023-02-19T10:02:50;101420.38;;;9.21;76.00
60465;BME280;46314;52.392;9.758;2023-02-19T10:05:17;101423.09;;;9.00;75.38
60465;BME280;46314;52.392;9.758;2023-02-19T10:07:46;101428.88;;;8.83;78.25
60465;BME280;46314;52.392;9.758;2023-02-19T10:10:23;101441.00;;;8.77;78.28
60465;BME280;46314;52.392;9.758;2023-02-19T10:12:55;101453.59;;;9.21;75.46
60465;BME280;46314;52.392;9.758;2023-02-19T10:15:29;101452.88;;;9.82;73.46
60465;BME280;46314;52.392;9.758;2023-02-19T10:17:57;101457.44;;;9.04;73.96
60465;BME280;46314;52.392;9.758;2023-02-19T10:20:24;101453.06;;;9.29;73.22
60465;BME280;46314;52.392;9.758;2023-02-19T10:22:56;101469.13;;;9.37;72.95
60465;BME280;46314;52.392;9.758;2023-02-19T10:25:24;101488.31;;;9.95;70.17
60465;BME280;46314;52.392;9.758;2023-02-19T10:27:50;101498.19;;;9.29;72.43
60465;BME280;46314;52.392;9.758;2023-02-19T10:30:20;101494.78;;;9.07;73.76
60465;BME280;46314;52.392;9.758;2023-02-19T10:33:00;101484.75;;;7.73;78.47
60465;BME280;46314;52.392;9.758;2023-02-19T10:35:27;101509.78;;;9.21;75.10
60465;BME280;46314;52.392;9.758;2023-02-19T10:37:54;101503.00;;;10.16;69.53
60465;BME280;46314;52.392;9.758;2023-02-19T10:40:23;101512.88;;;9.30;70.44
60465;BME280;46314;52.392;9.758;2023-02-19T10:42:52;101510.69;;;9.47;70.94
60465;BME280;46314;52.392;9.758;2023-02-19T10:45:23;101515.97;;;9.49;70.46
60465;BME280;46314;52.392;9.758;2023-02-19T10:47:50;101524.31;;;9.64;69.23
60465;BME280;46314;52.392;9.758;2023-02-19T10:50:25;101521.03;;;9.73;68.76
60465;BME280;46314;52.392;9.758;2023-02-19T10:52:53;101510.78;;;9.94;67.86
60465;BME280;46314;52.392;9.758;2023-02-19T10:55:26;101504.13;;;10.51;67.38
60465;BME280;46314;52.392;9.758;2023-02-19T10:57:53;101503.53;;;9.62;70.25
60465;BME280;46314;52.392;9.758;2023-02-19T11:00:22;101516.03;;;9.75;70.92
60465;BME280;46314;52.392;9.758;2023-02-19T11:02:49;101515.41;;;8.36;74.17
60465;BME280;46314;52.392;9.758;2023-02-19T11:05:17;101512.13;;;7.74;71.84
60465;BME280;46314;52.392;9.758;2023-02-19T11:07:47;101521.66;;;8.59;71.39
60465;BME280;46314;52.392;9.758;2023-02-19T11:10:25;101518.97;;;9.27;69.38
60465;BME280;46314;52.392;9.758;2023-02-19T11:12:54;101520.13;;;9.41;68.70
60465;BME280;46314;52.392;9.758;2023-02-19T11:15:24;101521.28;;;9.92;66.16
60465;BME280;46314;52.392;9.758;2023-02-19T11:17:57;101514.09;;;10.68;62.99
60465;BME280;46314;52.392;9.758;2023-02-19T11:20:24;101518.84;;;10.31;63.34
60465;BME280;46314;52.392;9.758;2023-02-19T11:22:56;101528.53;;;9.04;66.40
60465;BME280;46314;52.392;9.758;2023-02-19T11:25:23;101537.97;;;9.08;69.24
60465;BME280;46314;52.392;9.758;2023-02-19T11:27:57;101543.66;;;8.86;69.57
60465;BME280;46314;52.392;9.758;2023-02-19T11:30:35;101543.41;;;9.51;67.12
60465;BME280;46314;52.392;9.758;2023-02-19T11:33:21;101525.78;;;10.18;64.34
60465;BME280;46314;52.392;9.758;2023-02-19T11:35:50;101529.03;;;9.64;65.72
60465;BME280;46314;52.392;9.758;2023-02-19T11:38:19;101530.63;;;9.44;66.62
60465;BME280;46314;52.392;9.758;2023-02-19T11:40:49;101524.78;;;9.25;65.20
60465;BME280;46314;52.392;9.758;2023-02-19T11:43:46;101527.81;;;8.33;67.52
60465;BME280;46314;52.392;9.758;2023-02-19T11:46:23;101537.03;;;8.87;66.82
60465;BME280;46314;52.392;9.758;2023-02-19T11:49:00;101546.25;;;9.03;63.12
60465;BME280;46314;52.392;9.758;2023-02-19T11:51:39;101533.41;;;8.86;61.11
60465;BME280;46314;52.392;9.758;2023-02-19T11:54:19;101535.88;;;9.46;60.46
60465;BME280;46314;52.392;9.758;2023-02-19T11:56:50;101525.97;;;9.65;58.47
60465;BME280;46314;52.392;9.758;2023-02-19T11:59:27;101514.88;;;10.84;56.23
60465;BME280;46314;52.392;9.758;2023-02-19T12:02:23;101525.16;;;10.73;55.79
60465;BME280;46314;52.392;9.758;2023-02-19T12:04:55;101519.91;;;10.15;58.32
60465;BME280;46314;52.392;9.758;2023-02-19T12:07:49;101512.44;;;10.41;57.29
60465;BME280;46314;52.392;9.758;2023-02-19T12:10:27;101512.97;;;10.64;55.27
60465;BME280;46314;52.392;9.758;2023-02-19T12:13:05;101516.81;;;10.73;55.31
60465;BME280;46314;52.392;9.758;2023-02-19T12:15:48;101515.44;;;9.52;57.30
60465;BME280;46314;52.392;9.758;2023-02-19T12:18:25;101522.13;;;9.72;57.81
60465;BME280;46314;52.392;9.758;2023-02-19T12:21:04;101511.31;;;10.11;56.80
60465;BME280;46314;52.392;9.758;2023-02-19T12:23:44;101517.44;;;9.98;56.03
60465;BME280;46314;52.392;9.758;2023-02-19T12:26:21;101519.91;;;10.30;54.28
60465;BME280;46314;52.392;9.758;2023-02-19T12:29:03;101534.31;;;9.81;54.03
60465;BME280;46314;52.392;9.758;2023-02-19T12:31:53;101533.31;;;9.19;56.61
60465;BME280;46314;52.392;9.758;2023-02-19T12:34:29;101541.41;;;9.31;54.77
60465;BME280;46314;52.392;9.758;2023-02-19T12:37:10;101546.78;;;9.00;57.59
60465;BME280;46314;52.392;9.758;2023-02-19T12:39:45;101545.38;;;9.71;56.33
60465;BME280;46314;52.392;9.758;2023-02-19T12:42:30;101561.09;;;9.50;55.44
60465;BME280;46314;52.392;9.758;2023-02-19T12:45:02;101560.31;;;9.59;54.68
60465;BME280;46314;52.392;9.758;2023-02-19T12:47:36;101549.03;;;10.12;53.83
60465;BME280;46314;52.392;9.758;2023-02-19T12:50:15;101555.84;;;9.53;54.50
60465;BME280;46314;52.392;9.758;2023-02-19T12:52:47;101563.56;;;9.36;56.08
60465;BME280;46314;52.392;9.758;2023-02-19T12:55:20;101567.59;;;9.96;55.29
60465;BME280;46314;52.392;9.758;2023-02-19T12:57:48;101566.22;;;10.04;54.93
60465;BME280;46314;52.392;9.758;2023-02-19T13:00:27;101558.75;;;9.16;57.94
60465;BME280;46314;52.392;9.758;2023-02-19T13:02:59;101558.09;;;9.61;56.29
60465;BME280;46314;52.392;9.758;2023-02-19T13:05:37;101550.97;;;9.91;54.80
60465;BME280;46314;52.392;9.758;2023-02-19T13:08:10;101554.91;;;10.41;53.49
60465;BME280;46314;52.392;9.758;2023-02-19T13:10:42;101555.72;;;10.32;53.60